sensor_id;sensor_type;location;lat;lon;timestamp;temperature;humidity
5276;DHT22;2661;50.786;12.728;2022-11-24T00:01:26;-0.50;99.90
5276;DHT22;2661;50.786;12.728;2022-11-24T00:03:54;-0.40;99.90
5276;DHT22;2661;50.786;12.728;2022-11-24T00:06:21;-0.40;99.90
5276;DHT22;2661;50.786;12.728;2022-11-24T00:08:48;-0.50;99.90
5276;DHT22;2661;50.786;12.728;2022-11-24T00:11:16;-0.50;99.90
5276;DHT22;2661;50.786;12.728;2022-11-24T00:13:43;-0.50;99.90
5276;DHT22;2661;50.786;12.728;2022-11-24T00:16:11;-0.40;99.90
5276;DHT22;2661;50.786;12.728;2022-11-24T00:18:39;-0.40;99.90
5276;DHT22;2661;50.786;12.728;2022-11-24T00:21:06;-0.50;99.90
5276;DHT22;2661;50.786;12.728;2022-11-24T00:23:33;-0.50;99.90
5276;DHT22;2661;50.786;12.728;2022-11-24T00:26:03;-0.70;99.90
5276;DHT22;2661;50.786;12.728;2022-11-24T00:28:31;-0.70;99.90
5276;DHT22;2661;50.786;12.728;2022-11-24T00:30:58;-0.70;99.90
5276;DHT22;2661;50.786;12.728;2022-11-24T00:33:24;-0.70;99.90
5276;DHT22;2661;50.786;12.728;2022-11-24T00:35:57;-0.70;99.90
5276;DHT22;2661;50.786;12.728;2022-11-24T00:38:24;-0.70;99.90
5276;DHT22;2661;50.786;12.728;2022-11-24T00:40:51;-0.70;99.90
5276;DHT22;2661;50.786;12.728;2022-11-24T00:43:18;-0.70;99.90
5276;DHT22;2661;50.786;12.728;2022-11-24T00:45:44;-0.70;99.90
5276;DHT22;2661;50.786;12.728;2022-11-24T00:48:11;-0.60;99.90
5276;DHT22;2661;50.786;12.728;2022-11-24T00:50:38;-0.60;99.90
5276;DHT22;2661;50.786;12.728;2022-11-24T00:53:04;-0.50;99.90
5276;DHT22;2661;50.786;12.728;2022-11-24T00:55:31;-0.50;99.90
5276;DHT22;2661;50.786;12.728;2022-11-24T00:57:57;-0.50;99.90
5276;DHT22;2661;50.786;12.728;2022-11-24T01:00:24;-0.50;99.90
5276;DHT22;2661;50.786;12.728;2022-11-24T01:02:51;-0.50;99.90
5276;DHT22;2661;50.786;12.728;2022-11-24T01:05:18;-0.60;99.90
5276;DHT22;2661;50.786;12.728;2022-11-24T01:07:45;-0.40;99.90
5276;DHT22;2661;50.786;12.728;2022-11-24T01:10:12;-0.40;99.90
5276;DHT22;2661;50.786;12.728;2022-11-24T01:12:38;-0.40;99.90
5276;DHT22;2661;50.786;12.728;2022-11-24T01:15:05;-0.40;99.90
5276;DHT22;2661;50.786;12.728;2022-11-24T01:17:31;-0.50;99.90
5276;DHT22;2661;50.786;12.728;2022-11-24T01:19:58;-0.40;99.90
5276;DHT22;2661;50.786;12.728;2022-11-24T01:22:25;-0.40;99.90
5276;DHT22;2661;50.786;12.728;2022-11-24T01:24:52;-0.20;99.90
5276;DHT22;2661;50.786;12.728;2022-11-24T01:27:19;-0.20;99.90
5276;DHT22;2661;50.786;12.728;2022-11-24T01:29:45;-0.20;99.90
5276;DHT22;2661;50.786;12.728;2022-11-24T01:32:12;-0.20;99.90
5276;DHT22;2661;50.786;12.728;2022-11-24T01:34:39;-0.10;99.90
5276;DHT22;2661;50.786;12.728;2022-11-24T01:37:05;-0.10;99.90
5276;DHT22;2661;50.786;12.728;2022-11-24T01:39:32;-0.10;99.90
5276;DHT22;2661;50.786;12.728;2022-11-24T01:42:01;-0.10;99.90
5276;DHT22;2661;50.786;12.728;2022-11-24T01:44:28;-0.20;99.90
5276;DHT22;2661;50.786;12.728;2022-11-24T01:49:45;-0.30;99.90
5276;DHT22;2661;50.786;12.728;2022-11-24T01:52:13;-0.30;99.90
5276;DHT22;2661;50.786;12.728;2022-11-24T01:54:42;-0.30;99.90
5276;DHT22;2661;50.786;12.728;2022-11-24T01:57:21;-0.30;99.90
5276;DHT22;2661;50.786;12.728;2022-11-24T01:59:49;-0.20;99.90
5276;DHT22;2661;50.786;12.728;2022-11-24T02:02:17;-0.10;99.90
5276;DHT22;2661;50.786;12.728;2022-11-24T02:04:44;0.00;99.90
5276;DHT22;2661;50.786;12.728;2022-11-24T02:07:12;0.00;99.90
5276;DHT22;2661;50.786;12.728;2022-11-24T02:09:41;0.00;99.90
5276;DHT22;2661;50.786;12.728;2022-11-24T02:12:08;0.10;99.90
5276;DHT22;2661;50.786;12.728;2022-11-24T02:14:35;0.10;99.90
5276;DHT22;2661;50.786;12.728;2022-11-24T02:17:03;0.10;99.90
5276;DHT22;2661;50.786;12.728;2022-11-24T02:19:36;0.10;99.90
5276;DHT22;2661;50.786;12.728;2022-11-24T02:22:21;0.10;99.90
5276;DHT22;2661;50.786;12.728;2022-11-24T02:27:20;0.30;99.90
5276;DHT22;2661;50.786;12.728;2022-11-24T02:29:47;0.40;99.90
5276;DHT22;2661;50.786;12.728;2022-11-24T02:32:14;0.40;99.90
5276;DHT22;2661;50.786;12.728;2022-11-24T02:34:41;0.50;99.90
5276;DHT22;2661;50.786;12.728;2022-11-24T02:37:07;0.60;99.90
5276;DHT22;2661;50.786;12.728;2022-11-24T02:39:34;0.50;99.90
5276;DHT22;2661;50.786;12.728;2022-11-24T02:42:02;0.60;99.90
5276;DHT22;2661;50.786;12.728;2022-11-24T02:44:31;0.60;99.90
5276;DHT22;2661;50.786;12.728;2022-11-24T02:47:01;0.60;99.90
5276;DHT22;2661;50.786;12.728;2022-11-24T02:49:28;0.60;99.90
5276;DHT22;2661;50.786;12.728;2022-11-24T02:51:55;0.70;99.90
5276;DHT22;2661;50.786;12.728;2022-11-24T02:54:22;0.70;99.90
5276;DHT22;2661;50.786;12.728;2022-11-24T02:56:48;0.70;99.90
5276;DHT22;2661;50.786;12.728;2022-11-24T02:59:15;0.80;99.90
5276;DHT22;2661;50.786;12.728;2022-11-24T03:01:41;0.90;99.90
5276;DHT22;2661;50.786;12.728;2022-11-24T03:04:08;0.90;99.90
5276;DHT22;2661;50.786;12.728;2022-11-24T03:06:35;0.90;99.90
5276;DHT22;2661;50.786;12.728;2022-11-24T03:09:01;1.00;99.90
5276;DHT22;2661;50.786;12.728;2022-11-24T03:11:28;1.10;99.90
5276;DHT22;2661;50.786;12.728;2022-11-24T03:13:54;1.10;99.90
5276;DHT22;2661;50.786;12.728;2022-11-24T03:16:21;1.10;99.90
5276;DHT22;2661;50.786;12.728;2022-11-24T03:18:49;1.20;99.90
5276;DHT22;2661;50.786;12.728;2022-11-24T03:21:16;1.20;99.90
5276;DHT22;2661;50.786;12.728;2022-11-24T03:23:42;1.20;99.90
5276;DHT22;2661;50.786;12.728;2022-11-24T03:26:10;1.20;99.90
5276;DHT22;2661;50.786;12.728;2022-11-24T03:28:37;1.30;99.90
5276;DHT22;2661;50.786;12.728;2022-11-24T03:31:04;1.30;99.90
5276;DHT22;2661;50.786;12.728;2022-11-24T03:33:31;1.40;99.90
5276;DHT22;2661;50.786;12.728;2022-11-24T03:35:58;1.40;99.90
5276;DHT22;2661;50.786;12.728;2022-11-24T03:38:24;1.50;99.90
5276;DHT22;2661;50.786;12.728;2022-11-24T03:40:51;1.50;99.90
5276;DHT22;2661;50.786;12.728;2022-11-24T03:43:18;1.50;99.90
5276;DHT22;2661;50.786;12.728;2022-11-24T03:45:45;1.60;99.90
5276;DHT22;2661;50.786;12.728;2022-11-24T03:48:12;1.60;99.90
5276;DHT22;2661;50.786;12.728;2022-11-24T03:50:39;1.60;99.90
5276;DHT22;2661;50.786;12.728;2022-11-24T03:53:06;1.60;99.90
5276;DHT22;2661;50.786;12.728;2022-11-24T03:55:32;1.70;99.90
5276;DHT22;2661;50.786;12.728;2022-11-24T03:57:59;1.70;99.90
5276;DHT22;2661;50.786;12.728;2022-11-24T04:00:25;1.70;99.90
5276;DHT22;2661;50.786;12.728;2022-11-24T04:02:53;1.70;99.90
5276;DHT22;2661;50.786;12.728;2022-11-24T04:05:19;1.80;99.90
5276;DHT22;2661;50.786;12.728;2022-11-24T04:07:46;1.80;99.90
5276;DHT22;2661;50.786;12.728;2022-11-24T04:10:12;1.90;99.90
5276;DHT22;2661;50.786;12.728;2022-11-24T04:12:39;1.90;99.90
5276;DHT22;2661;50.786;12.728;2022-11-24T04:15:16;1.90;99.90
5276;DHT22;2661;50.786;12.728;2022-11-24T04:17:43;2.00;99.90
5276;DHT22;2661;50.786;12.728;2022-11-24T04:20:10;2.00;99.90
5276;DHT22;2661;50.786;12.728;2022-11-24T04:22:37;2.00;99.90
5276;DHT22;2661;50.786;12.728;2022-11-24T04:25:04;2.10;99.90
5276;DHT22;2661;50.786;12.728;2022-11-24T04:27:31;2.10;99.90
5276;DHT22;2661;50.786;12.728;2022-11-24T04:29:58;2.10;99.90
5276;DHT22;2661;50.786;12.728;2022-11-24T04:32:25;2.10;99.90
5276;DHT22;2661;50.786;12.728;2022-11-24T04:34:51;2.20;99.90
5276;DHT22;2661;50.786;12.728;2022-11-24T04:37:18;2.20;99.90
5276;DHT22;2661;50.786;12.728;2022-11-24T04:39:45;2.20;99.90
5276;DHT22;2661;50.786;12.728;2022-11-24T04:42:11;2.30;99.90
5276;DHT22;2661;50.786;12.728;2022-11-24T04:44:38;2.30;99.90
5276;DHT22;2661;50.786;12.728;2022-11-24T04:47:05;2.30;99.90
5276;DHT22;2661;50.786;12.728;2022-11-24T04:49:32;2.30;99.90
5276;DHT22;2661;50.786;12.728;2022-11-24T04:51:58;2.40;99.90
5276;DHT22;2661;50.786;12.728;2022-11-24T04:54:25;2.50;1.00
5276;DHT22;2661;50.786;12.728;2022-11-24T04:56:51;2.50;1.00
5276;DHT22;2661;50.786;12.728;2022-11-24T04:59:18;2.70;1.00
5276;DHT22;2661;50.786;12.728;2022-11-24T05:01:45;2.60;1.00
5276;DHT22;2661;50.786;12.728;2022-11-24T05:04:12;2.60;1.00
5276;DHT22;2661;50.786;12.728;2022-11-24T05:06:39;2.60;1.00
5276;DHT22;2661;50.786;12.728;2022-11-24T05:09:06;2.60;1.00
5276;DHT22;2661;50.786;12.728;2022-11-24T05:11:33;2.70;1.00
5276;DHT22;2661;50.786;12.728;2022-11-24T05:14:00;2.70;1.00
5276;DHT22;2661;50.786;12.728;2022-11-24T05:16:27;2.70;1.00
5276;DHT22;2661;50.786;12.728;2022-11-24T05:18:54;2.70;1.00
5276;DHT22;2661;50.786;12.728;2022-11-24T05:21:20;2.70;1.00
5276;DHT22;2661;50.786;12.728;2022-11-24T05:23:47;2.70;1.00
5276;DHT22;2661;50.786;12.728;2022-11-24T05:26:14;2.80;1.00
5276;DHT22;2661;50.786;12.728;2022-11-24T05:28:40;2.80;1.00
5276;DHT22;2661;50.786;12.728;2022-11-24T05:31:07;2.80;1.00
5276;DHT22;2661;50.786;12.728;2022-11-24T05:33:34;2.80;1.00
5276;DHT22;2661;50.786;12.728;2022-11-24T05:36:01;2.80;1.00
5276;DHT22;2661;50.786;12.728;2022-11-24T05:38:28;2.90;1.00
5276;DHT22;2661;50.786;12.728;2022-11-24T05:41:02;2.90;1.00
5276;DHT22;2661;50.786;12.728;2022-11-24T05:43:29;2.90;1.00
5276;DHT22;2661;50.786;12.728;2022-11-24T05:45:59;2.90;1.00
5276;DHT22;2661;50.786;12.728;2022-11-24T05:48:26;2.90;1.00
5276;DHT22;2661;50.786;12.728;2022-11-24T05:50:54;2.90;1.00
5276;DHT22;2661;50.786;12.728;2022-11-24T05:53:20;2.90;1.00
5276;DHT22;2661;50.786;12.728;2022-11-24T05:55:47;2.90;1.00
5276;DHT22;2661;50.786;12.728;2022-11-24T05:58:14;2.90;1.00
5276;DHT22;2661;50.786;12.728;2022-11-24T06:00:40;2.90;1.00
5276;DHT22;2661;50.786;12.728;2022-11-24T06:03:07;2.90;1.00
5276;DHT22;2661;50.786;12.728;2022-11-24T06:05:34;2.90;1.00
5276;DHT22;2661;50.786;12.728;2022-11-24T06:08:00;3.00;1.00
5276;DHT22;2661;50.786;12.728;2022-11-24T06:10:27;3.00;1.00
5276;DHT22;2661;50.786;12.728;2022-11-24T06:12:54;3.00;1.00
5276;DHT22;2661;50.786;12.728;2022-11-24T06:15:20;3.00;1.00
5276;DHT22;2661;50.786;12.728;2022-11-24T06:17:53;3.00;1.00
5276;DHT22;2661;50.786;12.728;2022-11-24T06:20:21;3.00;1.00
5276;DHT22;2661;50.786;12.728;2022-11-24T06:22:52;3.00;1.00
5276;DHT22;2661;50.786;12.728;2022-11-24T06:25:19;3.00;1.00
5276;DHT22;2661;50.786;12.728;2022-11-24T06:27:45;3.00;1.00
5276;DHT22;2661;50.786;12.728;2022-11-24T06:30:12;3.00;1.00
5276;DHT22;2661;50.786;12.728;2022-11-24T06:32:39;3.00;1.00
5276;DHT22;2661;50.786;12.728;2022-11-24T06:35:15;3.00;1.00
5276;DHT22;2661;50.786;12.728;2022-11-24T06:37:41;3.00;1.00
5276;DHT22;2661;50.786;12.728;2022-11-24T06:40:08;3.00;1.00
5276;DHT22;2661;50.786;12.728;2022-11-24T06:42:35;3.10;1.00
5276;DHT22;2661;50.786;12.728;2022-11-24T06:45:02;3.10;1.00
5276;DHT22;2661;50.786;12.728;2022-11-24T06:47:34;3.10;1.00
5276;DHT22;2661;50.786;12.728;2022-11-24T06:50:01;3.10;1.00
5276;DHT22;2661;50.786;12.728;2022-11-24T06:52:28;3.20;1.00
5276;DHT22;2661;50.786;12.728;2022-11-24T06:54:54;3.20;1.00
5276;DHT22;2661;50.786;12.728;2022-11-24T06:57:21;3.20;1.00
5276;DHT22;2661;50.786;12.728;2022-11-24T06:59:47;3.20;1.00
5276;DHT22;2661;50.786;12.728;2022-11-24T07:02:14;3.20;1.00
5276;DHT22;2661;50.786;12.728;2022-11-24T07:04:41;3.20;1.00
5276;DHT22;2661;50.786;12.728;2022-11-24T07:07:09;3.20;1.00
5276;DHT22;2661;50.786;12.728;2022-11-24T07:09:35;3.20;1.00
5276;DHT22;2661;50.786;12.728;2022-11-24T07:12:02;3.20;1.00
5276;DHT22;2661;50.786;12.728;2022-11-24T07:14:30;3.20;1.00
5276;DHT22;2661;50.786;12.728;2022-11-24T07:16:57;3.20;1.00
5276;DHT22;2661;50.786;12.728;2022-11-24T07:19:23;3.30;1.00
5276;DHT22;2661;50.786;12.728;2022-11-24T07:21:50;3.30;1.00
5276;DHT22;2661;50.786;12.728;2022-11-24T07:24:17;3.30;1.00
5276;DHT22;2661;50.786;12.728;2022-11-24T07:26:44;3.30;1.00
5276;DHT22;2661;50.786;12.728;2022-11-24T07:29:10;3.40;1.00
5276;DHT22;2661;50.786;12.728;2022-11-24T07:31:37;3.40;1.00
5276;DHT22;2661;50.786;12.728;2022-11-24T07:34:04;3.40;1.00
5276;DHT22;2661;50.786;12.728;2022-11-24T07:36:30;3.40;1.00
5276;DHT22;2661;50.786;12.728;2022-11-24T07:38:57;3.50;1.00
5276;DHT22;2661;50.786;12.728;2022-11-24T07:41:23;3.50;1.00
5276;DHT22;2661;50.786;12.728;2022-11-24T07:43:50;3.50;1.00
5276;DHT22;2661;50.786;12.728;2022-11-24T07:46:17;3.60;1.00
5276;DHT22;2661;50.786;12.728;2022-11-24T07:48:45;3.60;1.00
5276;DHT22;2661;50.786;12.728;2022-11-24T07:51:11;3.60;1.00
5276;DHT22;2661;50.786;12.728;2022-11-24T07:53:38;3.80;1.00
5276;DHT22;2661;50.786;12.728;2022-11-24T07:56:05;3.80;1.00
5276;DHT22;2661;50.786;12.728;2022-11-24T07:58:33;3.80;1.00
5276;DHT22;2661;50.786;12.728;2022-11-24T08:01:10;3.90;1.00
5276;DHT22;2661;50.786;12.728;2022-11-24T08:03:37;3.90;1.00
5276;DHT22;2661;50.786;12.728;2022-11-24T08:06:04;3.90;1.00
5276;DHT22;2661;50.786;12.728;2022-11-24T08:08:51;4.00;1.00
5276;DHT22;2661;50.786;12.728;2022-11-24T08:11:17;4.10;1.00
5276;DHT22;2661;50.786;12.728;2022-11-24T08:13:44;4.20;1.00
5276;DHT22;2661;50.786;12.728;2022-11-24T08:16:13;4.20;1.00
5276;DHT22;2661;50.786;12.728;2022-11-24T08:18:41;4.20;1.00
5276;DHT22;2661;50.786;12.728;2022-11-24T08:21:10;4.30;1.00
5276;DHT22;2661;50.786;12.728;2022-11-24T08:23:37;4.40;1.00
5276;DHT22;2661;50.786;12.728;2022-11-24T08:26:05;4.40;1.00
5276;DHT22;2661;50.786;12.728;2022-11-24T08:28:34;4.50;1.00
5276;DHT22;2661;50.786;12.728;2022-11-24T08:31:10;4.50;1.00
5276;DHT22;2661;50.786;12.728;2022-11-24T08:33:38;4.60;1.00
5276;DHT22;2661;50.786;12.728;2022-11-24T08:36:05;4.60;1.00
5276;DHT22;2661;50.786;12.728;2022-11-24T08:38:32;4.70;1.00
5276;DHT22;2661;50.786;12.728;2022-11-24T08:41:03;4.80;1.00
5276;DHT22;2661;50.786;12.728;2022-11-24T08:43:30;4.90;1.00
5276;DHT22;2661;50.786;12.728;2022-11-24T08:46:04;4.90;1.00
5276;DHT22;2661;50.786;12.728;2022-11-24T08:48:32;5.00;1.00
5276;DHT22;2661;50.786;12.728;2022-11-24T08:50:59;5.10;1.00
5276;DHT22;2661;50.786;12.728;2022-11-24T08:53:30;5.20;1.00
5276;DHT22;2661;50.786;12.728;2022-11-24T08:56:00;5.30;1.00
5276;DHT22;2661;50.786;12.728;2022-11-24T08:58:30;5.40;1.00
5276;DHT22;2661;50.786;12.728;2022-11-24T09:01:09;5.40;1.00
5276;DHT22;2661;50.786;12.728;2022-11-24T09:03:37;5.50;1.00
5276;DHT22;2661;50.786;12.728;2022-11-24T09:06:10;5.60;1.00
5276;DHT22;2661;50.786;12.728;2022-11-24T09:08:37;5.70;1.00
5276;DHT22;2661;50.786;12.728;2022-11-24T09:11:05;5.80;1.00
5276;DHT22;2661;50.786;12.728;2022-11-24T09:13:32;5.90;1.00
5276;DHT22;2661;50.786;12.728;2022-11-24T09:16:05;5.90;1.00
5276;DHT22;2661;50.786;12.728;2022-11-24T09:18:33;6.00;1.00
5276;DHT22;2661;50.786;12.728;2022-11-24T09:23:33;6.10;1.00
5276;DHT22;2661;50.786;12.728;2022-11-24T09:26:07;6.10;1.00
5276;DHT22;2661;50.786;12.728;2022-11-24T09:28:33;6.20;1.00
5276;DHT22;2661;50.786;12.728;2022-11-24T09:31:01;6.20;1.00
5276;DHT22;2661;50.786;12.728;2022-11-24T09:33:28;6.30;1.00
5276;DHT22;2661;50.786;12.728;2022-11-24T09:35:55;6.30;1.00
5276;DHT22;2661;50.786;12.728;2022-11-24T09:38:22;6.30;1.00
5276;DHT22;2661;50.786;12.728;2022-11-24T09:40:48;6.30;1.00
5276;DHT22;2661;50.786;12.728;2022-11-24T09:43:28;6.30;1.00
5276;DHT22;2661;50.786;12.728;2022-11-24T09:48:34;6.40;1.00
5276;DHT22;2661;50.786;12.728;2022-11-24T09:51:02;6.40;1.00
5276;DHT22;2661;50.786;12.728;2022-11-24T09:53:42;6.50;1.00
5276;DHT22;2661;50.786;12.728;2022-11-24T09:56:15;6.50;1.00
5276;DHT22;2661;50.786;12.728;2022-11-24T09:58:58;6.60;1.00
5276;DHT22;2661;50.786;12.728;2022-11-24T10:01:29;6.60;1.00
5276;DHT22;2661;50.786;12.728;2022-11-24T10:03:57;6.60;1.00
5276;DHT22;2661;50.786;12.728;2022-11-24T10:06:37;6.60;1.00
5276;DHT22;2661;50.786;12.728;2022-11-24T10:14:57;6.70;1.00
5276;DHT22;2661;50.786;12.728;2022-11-24T10:17:32;6.70;1.00
5276;DHT22;2661;50.786;12.728;2022-11-24T10:22:37;6.90;1.00
5276;DHT22;2661;50.786;12.728;2022-11-24T10:27:40;7.00;1.00
5276;DHT22;2661;50.786;12.728;2022-11-24T10:30:15;7.10;1.00
5276;DHT22;2661;50.786;12.728;2022-11-24T10:32:44;7.10;1.00
5276;DHT22;2661;50.786;12.728;2022-11-24T10:35:22;7.10;1.00
5276;DHT22;2661;50.786;12.728;2022-11-24T10:40:59;7.20;1.00
5276;DHT22;2661;50.786;12.728;2022-11-24T10:43:27;7.20;1.00
5276;DHT22;2661;50.786;12.728;2022-11-24T10:46:08;7.20;1.00
5276;DHT22;2661;50.786;12.728;2022-11-24T10:48:37;7.30;1.00
5276;DHT22;2661;50.786;12.728;2022-11-24T10:51:20;7.40;1.00
5276;DHT22;2661;50.786;12.728;2022-11-24T10:53:54;7.50;1.00
5276;DHT22;2661;50.786;12.728;2022-11-24T10:56:25;7.60;1.00
5276;DHT22;2661;50.786;12.728;2022-11-24T10:58:51;7.60;1.00
5276;DHT22;2661;50.786;12.728;2022-11-24T11:01:19;7.70;1.00
5276;DHT22;2661;50.786;12.728;2022-11-24T11:03:47;7.80;99.90
5276;DHT22;2661;50.786;12.728;2022-11-24T11:06:19;7.80;99.90
5276;DHT22;2661;50.786;12.728;2022-11-24T11:08:47;7.90;99.90
5276;DHT22;2661;50.786;12.728;2022-11-24T11:13:51;7.90;99.90
5276;DHT22;2661;50.786;12.728;2022-11-24T11:24:38;8.00;99.90
5276;DHT22;2661;50.786;12.728;2022-11-24T11:27:15;8.10;99.90
5276;DHT22;2661;50.786;12.728;2022-11-24T11:29:42;8.20;99.90
5276;DHT22;2661;50.786;12.728;2022-11-24T11:32:29;8.20;99.90
5276;DHT22;2661;50.786;12.728;2022-11-24T11:35:16;8.20;99.90
5276;DHT22;2661;50.786;12.728;2022-11-24T11:37:43;8.30;99.90
5276;DHT22;2661;50.786;12.728;2022-11-24T11:40:13;8.40;99.90
5276;DHT22;2661;50.786;12.728;2022-11-24T11:42:42;8.30;99.90
5276;DHT22;2661;50.786;12.728;2022-11-24T11:45:37;8.30;99.90
5276;DHT22;2661;50.786;12.728;2022-11-24T11:50:54;8.10;99.90
5276;DHT22;2661;50.786;12.728;2022-11-24T11:53:55;8.10;99.90
5276;DHT22;2661;50.786;12.728;2022-11-24T12:06:55;8.10;99.90
5276;DHT22;2661;50.786;12.728;2022-11-24T12:09:42;8.00;99.90
5276;DHT22;2661;50.786;12.728;2022-11-24T12:20:16;7.90;99.90
5276;DHT22;2661;50.786;12.728;2022-11-24T12:25:30;7.80;99.90
5276;DHT22;2661;50.786;12.728;2022-11-24T12:30:25;7.80;99.90
5276;DHT22;2661;50.786;12.728;2022-11-24T12:35:37;7.80;99.90
5276;DHT22;2661;50.786;12.728;2022-11-24T12:43:49;7.60;99.90
5276;DHT22;2661;50.786;12.728;2022-11-24T12:51:28;7.50;99.90
5276;DHT22;2661;50.786;12.728;2022-11-24T12:53:54;7.50;99.90
5276;DHT22;2661;50.786;12.728;2022-11-24T12:56:24;7.40;99.90
5276;DHT22;2661;50.786;12.728;2022-11-24T12:59:17;7.40;1.00
5276;DHT22;2661;50.786;12.728;2022-11-24T13:02:01;7.40;1.00
5276;DHT22;2661;50.786;12.728;2022-11-24T13:04:32;7.40;1.00
5276;DHT22;2661;50.786;12.728;2022-11-24T13:07:03;7.50;1.00
5276;DHT22;2661;50.786;12.728;2022-11-24T13:09:30;7.60;1.00
5276;DHT22;2661;50.786;12.728;2022-11-24T13:12:09;7.60;1.00
5276;DHT22;2661;50.786;12.728;2022-11-24T13:14:36;7.60;1.00
5276;DHT22;2661;50.786;12.728;2022-11-24T13:22:49;7.70;99.90
5276;DHT22;2661;50.786;12.728;2022-11-24T13:25:19;7.70;99.90
5276;DHT22;2661;50.786;12.728;2022-11-24T13:27:52;7.70;99.90
5276;DHT22;2661;50.786;12.728;2022-11-24T13:35:32;7.70;99.90
5276;DHT22;2661;50.786;12.728;2022-11-24T13:37:58;7.60;99.90
5276;DHT22;2661;50.786;12.728;2022-11-24T13:53:21;7.70;99.90
5276;DHT22;2661;50.786;12.728;2022-11-24T13:55:51;7.70;99.90
5276;DHT22;2661;50.786;12.728;2022-11-24T13:58:25;7.60;99.90
5276;DHT22;2661;50.786;12.728;2022-11-24T14:01:09;7.60;99.90
5276;DHT22;2661;50.786;12.728;2022-11-24T14:06:44;7.50;99.90
5276;DHT22;2661;50.786;12.728;2022-11-24T14:09:30;7.40;99.90
5276;DHT22;2661;50.786;12.728;2022-11-24T14:14:38;7.30;1.00
5276;DHT22;2661;50.786;12.728;2022-11-24T14:17:24;7.30;1.00
5276;DHT22;2661;50.786;12.728;2022-11-24T14:19:53;7.20;1.00
5276;DHT22;2661;50.786;12.728;2022-11-24T14:22:21;7.20;1.00
5276;DHT22;2661;50.786;12.728;2022-11-24T14:24:52;7.10;1.00
5276;DHT22;2661;50.786;12.728;2022-11-24T14:27:19;7.10;1.00
5276;DHT22;2661;50.786;12.728;2022-11-24T14:29:55;7.10;1.00
5276;DHT22;2661;50.786;12.728;2022-11-24T14:32:22;7.10;1.00
5276;DHT22;2661;50.786;12.728;2022-11-24T14:34:49;7.00;1.00
5276;DHT22;2661;50.786;12.728;2022-11-24T14:37:17;7.00;1.00
5276;DHT22;2661;50.786;12.728;2022-11-24T14:39:47;6.90;1.00
5276;DHT22;2661;50.786;12.728;2022-11-24T14:42:18;6.90;1.00
5276;DHT22;2661;50.786;12.728;2022-11-24T14:47:13;6.80;1.00
5276;DHT22;2661;50.786;12.728;2022-11-24T14:49:42;6.80;1.00
5276;DHT22;2661;50.786;12.728;2022-11-24T14:52:11;6.80;1.00
5276;DHT22;2661;50.786;12.728;2022-11-24T14:54:54;6.70;1.00
5276;DHT22;2661;50.786;12.728;2022-11-24T15:00:03;6.60;1.00
5276;DHT22;2661;50.786;12.728;2022-11-24T15:05:02;6.60;1.00
5276;DHT22;2661;50.786;12.728;2022-11-24T15:07:29;6.60;1.00
5276;DHT22;2661;50.786;12.728;2022-11-24T15:09:57;6.50;1.00
5276;DHT22;2661;50.786;12.728;2022-11-24T15:14:57;6.50;1.00
5276;DHT22;2661;50.786;12.728;2022-11-24T15:17:24;6.40;1.00
5276;DHT22;2661;50.786;12.728;2022-11-24T15:19:56;6.40;1.00
5276;DHT22;2661;50.786;12.728;2022-11-24T15:22:32;6.40;1.00
5276;DHT22;2661;50.786;12.728;2022-11-24T15:24:59;6.40;1.00
5276;DHT22;2661;50.786;12.728;2022-11-24T15:27:26;6.30;1.00
5276;DHT22;2661;50.786;12.728;2022-11-24T15:29:52;6.30;1.00
5276;DHT22;2661;50.786;12.728;2022-11-24T15:32:19;6.30;1.00
5276;DHT22;2661;50.786;12.728;2022-11-24T15:34:45;6.20;1.00
5276;DHT22;2661;50.786;12.728;2022-11-24T15:37:12;6.20;1.00
5276;DHT22;2661;50.786;12.728;2022-11-24T15:39:38;6.20;9.80
5276;DHT22;2661;50.786;12.728;2022-11-24T15:42:05;6.10;26.00
5276;DHT22;2661;50.786;12.728;2022-11-24T15:44:33;6.10;77.60
5276;DHT22;2661;50.786;12.728;2022-11-24T15:47:00;6.10;99.90
5276;DHT22;2661;50.786;12.728;2022-11-24T15:49:27;6.10;99.90
5276;DHT22;2661;50.786;12.728;2022-11-24T15:51:53;6.10;99.90
5276;DHT22;2661;50.786;12.728;2022-11-24T15:54:20;6.10;99.90
5276;DHT22;2661;50.786;12.728;2022-11-24T15:56:47;6.10;99.90
5276;DHT22;2661;50.786;12.728;2022-11-24T15:59:14;6.00;99.90
5276;DHT22;2661;50.786;12.728;2022-11-24T16:01:46;5.90;30.90
5276;DHT22;2661;50.786;12.728;2022-11-24T16:04:15;5.80;1.00
5276;DHT22;2661;50.786;12.728;2022-11-24T16:06:41;5.70;1.00
5276;DHT22;2661;50.786;12.728;2022-11-24T16:09:11;5.60;11.00
5276;DHT22;2661;50.786;12.728;2022-11-24T16:11:38;5.60;99.90
5276;DHT22;2661;50.786;12.728;2022-11-24T16:14:04;5.60;99.90
5276;DHT22;2661;50.786;12.728;2022-11-24T16:16:31;5.60;99.90
5276;DHT22;2661;50.786;12.728;2022-11-24T16:18:57;5.60;1.00
5276;DHT22;2661;50.786;12.728;2022-11-24T16:21:24;5.60;1.00
5276;DHT22;2661;50.786;12.728;2022-11-24T16:23:50;5.60;1.00
5276;DHT22;2661;50.786;12.728;2022-11-24T16:26:17;5.70;1.00
5276;DHT22;2661;50.786;12.728;2022-11-24T16:28:44;5.70;1.00
5276;DHT22;2661;50.786;12.728;2022-11-24T16:31:11;5.70;1.00
5276;DHT22;2661;50.786;12.728;2022-11-24T16:33:41;5.70;1.00
5276;DHT22;2661;50.786;12.728;2022-11-24T16:36:09;5.60;1.00
5276;DHT22;2661;50.786;12.728;2022-11-24T16:38:36;5.60;1.00
5276;DHT22;2661;50.786;12.728;2022-11-24T16:41:03;5.60;1.00
5276;DHT22;2661;50.786;12.728;2022-11-24T16:43:29;5.60;1.00
5276;DHT22;2661;50.786;12.728;2022-11-24T16:46:03;5.60;1.00
5276;DHT22;2661;50.786;12.728;2022-11-24T16:48:36;5.60;1.00
5276;DHT22;2661;50.786;12.728;2022-11-24T16:51:03;5.60;1.00
5276;DHT22;2661;50.786;12.728;2022-11-24T16:53:30;5.60;1.00
5276;DHT22;2661;50.786;12.728;2022-11-24T16:55:57;5.60;1.00
5276;DHT22;2661;50.786;12.728;2022-11-24T16:58:23;5.70;1.00
5276;DHT22;2661;50.786;12.728;2022-11-24T17:00:50;5.60;1.00
5276;DHT22;2661;50.786;12.728;2022-11-24T17:03:17;5.70;1.00
5276;DHT22;2661;50.786;12.728;2022-11-24T17:05:43;5.70;1.00
5276;DHT22;2661;50.786;12.728;2022-11-24T17:08:10;5.70;1.00
5276;DHT22;2661;50.786;12.728;2022-11-24T17:10:37;5.70;1.00
5276;DHT22;2661;50.786;12.728;2022-11-24T17:13:03;5.70;1.00
5276;DHT22;2661;50.786;12.728;2022-11-24T17:15:30;5.70;1.00
5276;DHT22;2661;50.786;12.728;2022-11-24T17:18:02;5.70;1.00
5276;DHT22;2661;50.786;12.728;2022-11-24T17:20:48;5.70;1.00
5276;DHT22;2661;50.786;12.728;2022-11-24T17:23:15;5.60;1.00
5276;DHT22;2661;50.786;12.728;2022-11-24T17:25:42;5.60;1.00
5276;DHT22;2661;50.786;12.728;2022-11-24T17:28:09;5.60;1.00
5276;DHT22;2661;50.786;12.728;2022-11-24T17:30:35;5.60;1.00
5276;DHT22;2661;50.786;12.728;2022-11-24T17:33:03;5.60;1.00
5276;DHT22;2661;50.786;12.728;2022-11-24T17:35:29;5.60;1.00
5276;DHT22;2661;50.786;12.728;2022-11-24T17:37:56;5.70;1.00
5276;DHT22;2661;50.786;12.728;2022-11-24T17:40:23;5.70;1.00
5276;DHT22;2661;50.786;12.728;2022-11-24T17:42:58;5.70;1.00
5276;DHT22;2661;50.786;12.728;2022-11-24T17:45:25;5.70;1.00
5276;DHT22;2661;50.786;12.728;2022-11-24T17:47:52;5.70;1.00
5276;DHT22;2661;50.786;12.728;2022-11-24T17:50:19;5.70;1.00
5276;DHT22;2661;50.786;12.728;2022-11-24T17:52:51;5.60;1.00
5276;DHT22;2661;50.786;12.728;2022-11-24T17:55:18;5.60;1.00
5276;DHT22;2661;50.786;12.728;2022-11-24T17:57:45;5.60;1.00
5276;DHT22;2661;50.786;12.728;2022-11-24T18:00:11;5.60;1.00
5276;DHT22;2661;50.786;12.728;2022-11-24T18:02:38;5.60;1.00
5276;DHT22;2661;50.786;12.728;2022-11-24T18:05:05;5.70;1.00
5276;DHT22;2661;50.786;12.728;2022-11-24T18:07:33;5.60;1.00
5276;DHT22;2661;50.786;12.728;2022-11-24T18:10:00;5.60;1.00
5276;DHT22;2661;50.786;12.728;2022-11-24T18:12:27;5.60;1.00
5276;DHT22;2661;50.786;12.728;2022-11-24T18:14:53;5.60;1.00